sensor_id;sensor_type;location;lat;lon;timestamp;pressure;altitude;pressure_sealevel;temperature;humidity
20955;BME280;10636;19.390;-99.256;2022-07-05T00:01:05;78033.13;;;25.71;40.37
20955;BME280;10636;19.390;-99.256;2022-07-05T00:03:34;78036.44;;;25.70;40.31
20955;BME280;10636;19.390;-99.256;2022-07-05T00:06:03;78035.66;;;25.67;40.70
20955;BME280;10636;19.390;-99.256;2022-07-05T00:08:31;78040.34;;;25.67;40.37
20955;BME280;10636;19.390;-99.256;2022-07-05T00:11:00;78032.84;;;25.63;40.71
20955;BME280;10636;19.390;-99.256;2022-07-05T00:13:30;78045.56;;;25.63;40.74
20955;BME280;10636;19.390;-99.256;2022-07-05T00:15:59;78048.78;;;25.59;40.60
20955;BME280;10636;19.390;-99.256;2022-07-05T00:18:27;78045.34;;;25.56;40.50
20955;BME280;10636;19.390;-99.256;2022-07-05T00:20:55;78058.00;;;25.54;40.92
20955;BME280;10636;19.390;-99.256;2022-07-05T00:23:24;78056.63;;;25.53;40.85
20955;BME280;10636;19.390;-99.256;2022-07-05T00:25:52;78056.63;;;25.53;40.97
20955;BME280;10636;19.390;-99.256;2022-07-05T00:28:20;78056.63;;;25.53;40.86
20955;BME280;10636;19.390;-99.256;2022-07-05T00:30:51;78050.56;;;25.52;41.03
20955;BME280;10636;19.390;-99.256;2022-07-05T00:33:19;78053.84;;;25.51;40.87
20955;BME280;10636;19.390;-99.256;2022-07-05T00:35:47;78045.03;;;25.48;41.19
20955;BME280;10636;19.390;-99.256;2022-07-05T00:38:16;78048.34;;;25.47;41.11
20955;BME280;10636;19.390;-99.256;2022-07-05T00:40:44;78046.94;;;25.46;41.06
20955;BME280;10636;19.390;-99.256;2022-07-05T00:43:13;78054.94;;;25.44;41.26
20955;BME280;10636;19.390;-99.256;2022-07-05T00:45:41;78053.56;;;25.43;41.22
20955;BME280;10636;19.390;-99.256;2022-07-05T00:48:11;78045.66;;;25.29;40.97
20955;BME280;10636;19.390;-99.256;2022-07-05T00:50:41;78051.41;;;25.39;40.89
20955;BME280;10636;19.390;-99.256;2022-07-05T00:53:09;78046.72;;;25.40;41.21
20955;BME280;10636;19.390;-99.256;2022-07-05T00:55:38;78049.34;;;25.38;41.06
20955;BME280;10636;19.390;-99.256;2022-07-05T00:58:06;78046.66;;;25.38;41.50
20955;BME280;10636;19.390;-99.256;2022-07-05T01:00:35;78055.41;;;25.38;41.58
20955;BME280;10636;19.390;-99.256;2022-07-05T01:03:04;78054.72;;;25.38;41.02
20955;BME280;10636;19.390;-99.256;2022-07-05T01:05:34;78040.81;;;25.25;41.29
20955;BME280;10636;19.390;-99.256;2022-07-05T01:08:05;78056.03;;;25.37;41.39
20955;BME280;10636;19.390;-99.256;2022-07-05T01:10:34;78054.63;;;25.36;41.21
20955;BME280;10636;19.390;-99.256;2022-07-05T01:13:03;78051.81;;;25.32;41.09
20955;BME280;10636;19.390;-99.256;2022-07-05T01:15:31;78059.94;;;25.34;41.74
20955;BME280;10636;19.390;-99.256;2022-07-05T01:18:00;78057.25;;;25.34;41.44
20955;BME280;10636;19.390;-99.256;2022-07-05T01:20:29;78057.19;;;25.32;41.42
20955;BME280;10636;19.390;-99.256;2022-07-05T01:22:59;78054.50;;;25.32;41.95
20955;BME280;10636;19.390;-99.256;2022-07-05T01:25:30;78063.91;;;25.33;41.77
20955;BME280;10636;19.390;-99.256;2022-07-05T01:27:59;78065.22;;;25.32;42.20
20955;BME280;10636;19.390;-99.256;2022-07-05T01:30:28;78065.81;;;25.30;41.84
20955;BME280;10636;19.390;-99.256;2022-07-05T01:32:58;78067.91;;;25.32;41.68
20955;BME280;10636;19.390;-99.256;2022-07-05T01:35:27;78069.13;;;25.28;41.84
20955;BME280;10636;19.390;-99.256;2022-07-05T01:37:55;78069.81;;;25.29;41.47
20955;BME280;10636;19.390;-99.256;2022-07-05T01:40:25;78073.13;;;25.27;41.82
20955;BME280;10636;19.390;-99.256;2022-07-05T01:42:54;78070.34;;;25.25;41.72
20955;BME280;10636;19.390;-99.256;2022-07-05T01:45:23;78070.34;;;25.25;42.04
20955;BME280;10636;19.390;-99.256;2022-07-05T01:48:10;78074.25;;;25.22;41.48
20955;BME280;10636;19.390;-99.256;2022-07-05T01:50:43;78074.25;;;25.22;41.76
20955;BME280;10636;19.390;-99.256;2022-07-05T01:53:17;78079.47;;;25.18;41.34
20955;BME280;10636;19.390;-99.256;2022-07-05T01:55:47;78082.22;;;25.20;41.52
20955;BME280;10636;19.390;-99.256;2022-07-05T01:58:16;78071.88;;;25.13;41.43
20955;BME280;10636;19.390;-99.256;2022-07-05T02:00:47;78072.03;;;25.17;41.47
20955;BME280;10636;19.390;-99.256;2022-07-05T02:03:16;78082.09;;;25.16;41.79
20955;BME280;10636;19.390;-99.256;2022-07-05T02:05:45;78083.47;;;25.17;41.75
20955;BME280;10636;19.390;-99.256;2022-07-05T02:08:15;78076.72;;;25.16;41.63
20955;BME280;10636;19.390;-99.256;2022-07-05T02:10:44;78083.47;;;25.17;41.77
20955;BME280;10636;19.390;-99.256;2022-07-05T02:13:14;78083.47;;;25.17;41.63
20955;BME280;10636;19.390;-99.256;2022-07-05T02:15:42;78092.28;;;25.20;41.25
20955;BME280;10636;19.390;-99.256;2022-07-05T02:18:11;78094.19;;;25.17;41.57
20955;BME280;10636;19.390;-99.256;2022-07-05T02:20:40;78096.81;;;25.15;40.96
20955;BME280;10636;19.390;-99.256;2022-07-05T02:23:09;78099.50;;;25.15;41.04
20955;BME280;10636;19.390;-99.256;2022-07-05T02:25:37;78098.09;;;25.14;40.74
20955;BME280;10636;19.390;-99.256;2022-07-05T02:28:05;78100.78;;;25.14;41.02
20955;BME280;10636;19.390;-99.256;2022-07-05T02:30:35;78110.75;;;25.12;40.99
20955;BME280;10636;19.390;-99.256;2022-07-05T02:33:04;78113.34;;;25.10;41.13
20955;BME280;10636;19.390;-99.256;2022-07-05T02:35:32;78113.97;;;25.08;40.78
20955;BME280;10636;19.390;-99.256;2022-07-05T02:38:00;78118.03;;;25.09;40.82
20955;BME280;10636;19.390;-99.256;2022-07-05T02:40:29;78113.97;;;25.08;40.80
20955;BME280;10636;19.390;-99.256;2022-07-05T02:42:57;78125.31;;;25.07;40.68
20955;BME280;10636;19.390;-99.256;2022-07-05T02:45:26;78132.69;;;25.06;40.46
20955;BME280;10636;19.390;-99.256;2022-07-05T02:47:57;78134.53;;;25.03;40.88
20955;BME280;10636;19.390;-99.256;2022-07-05T02:50:25;78136.63;;;25.05;40.43
20955;BME280;10636;19.390;-99.256;2022-07-05T02:52:54;78144.69;;;25.05;40.45
20955;BME280;10636;19.390;-99.256;2022-07-05T02:55:22;78143.91;;;25.02;40.52
20955;BME280;10636;19.390;-99.256;2022-07-05T02:57:51;78146.16;;;25.08;40.83
20955;BME280;10636;19.390;-99.256;2022-07-05T03:00:19;78143.72;;;25.14;40.76
20955;BME280;10636;19.390;-99.256;2022-07-05T03:02:48;78135.75;;;25.16;40.95
20955;BME280;10636;19.390;-99.256;2022-07-05T03:05:18;78143.72;;;25.14;40.90
20955;BME280;10636;19.390;-99.256;2022-07-05T03:07:46;78139.75;;;25.15;40.54
20955;BME280;10636;19.390;-99.256;2022-07-05T03:10:14;78143.72;;;25.14;40.71
20955;BME280;10636;19.390;-99.256;2022-07-05T03:12:43;78143.13;;;25.16;40.81
20955;BME280;10636;19.390;-99.256;2022-07-05T03:15:11;78150.50;;;25.15;41.10
20955;BME280;10636;19.390;-99.256;2022-07-05T03:17:40;78145.13;;;25.15;40.75
20955;BME280;10636;19.390;-99.256;2022-07-05T03:20:09;78153.19;;;25.15;40.87
20955;BME280;10636;19.390;-99.256;2022-07-05T03:22:39;78146.41;;;25.14;40.96
20955;BME280;10636;19.390;-99.256;2022-07-05T03:25:08;78154.56;;;25.16;40.81
20955;BME280;10636;19.390;-99.256;2022-07-05T03:27:37;78154.44;;;25.14;41.24
20955;BME280;10636;19.390;-99.256;2022-07-05T03:30:06;78144.25;;;25.11;40.77
20955;BME280;10636;19.390;-99.256;2022-07-05T03:32:35;78162.50;;;25.14;40.78
20955;BME280;10636;19.390;-99.256;2022-07-05T03:35:04;78173.34;;;25.16;41.06
20955;BME280;10636;19.390;-99.256;2022-07-05T03:37:33;78165.28;;;25.16;40.81
20955;BME280;10636;19.390;-99.256;2022-07-05T03:40:04;78173.34;;;25.16;40.58
20955;BME280;10636;19.390;-99.256;2022-07-05T03:42:33;78173.34;;;25.16;40.84
20955;BME280;10636;19.390;-99.256;2022-07-05T03:45:01;78180.09;;;25.17;40.95
20955;BME280;10636;19.390;-99.256;2022-07-05T03:47:30;78167.97;;;25.16;40.90
20955;BME280;10636;19.390;-99.256;2022-07-05T03:49:58;78169.97;;;25.16;41.03
20955;BME280;10636;19.390;-99.256;2022-07-05T03:52:27;78167.97;;;25.16;40.90
20955;BME280;10636;19.390;-99.256;2022-07-05T03:54:55;78177.31;;;25.15;40.74
20955;BME280;10636;19.390;-99.256;2022-07-05T03:57:25;78181.28;;;25.14;41.19
20955;BME280;10636;19.390;-99.256;2022-07-05T03:59:53;78175.22;;;25.14;40.85
20955;BME280;10636;19.390;-99.256;2022-07-05T04:02:22;78181.28;;;25.14;41.07
20955;BME280;10636;19.390;-99.256;2022-07-05T04:04:50;78180.00;;;25.15;40.76
20955;BME280;10636;19.390;-99.256;2022-07-05T04:07:19;78186.06;;;25.16;40.74
20955;BME280;10636;19.390;-99.256;2022-07-05T04:09:47;78195.50;;;25.17;40.99
20955;BME280;10636;19.390;-99.256;2022-07-05T04:12:16;78195.50;;;25.17;40.90
20955;BME280;10636;19.390;-99.256;2022-07-05T04:14:46;78205.53;;;25.16;40.83
20955;BME280;10636;19.390;-99.256;2022-07-05T04:17:14;78201.47;;;25.15;41.00
20955;BME280;10636;19.390;-99.256;2022-07-05T04:19:43;78206.13;;;25.15;40.98
20955;BME280;10636;19.390;-99.256;2022-07-05T04:22:11;78206.75;;;25.13;40.93
20955;BME280;10636;19.390;-99.256;2022-07-05T04:24:40;78205.38;;;25.12;40.70
20955;BME280;10636;19.390;-99.256;2022-07-05T04:27:21;78201.47;;;25.15;40.96
20955;BME280;10636;19.390;-99.256;2022-07-05T04:29:52;78192.03;;;25.14;40.98
20955;BME280;10636;19.390;-99.256;2022-07-05T04:32:20;78194.81;;;25.16;41.18
20955;BME280;10636;19.390;-99.256;2022-07-05T04:34:48;78195.50;;;25.17;41.25
20955;BME280;10636;19.390;-99.256;2022-07-05T04:37:17;78196.19;;;25.17;40.71
20955;BME280;10636;19.390;-99.256;2022-07-05T04:39:45;78182.69;;;25.15;40.96
20955;BME280;10636;19.390;-99.256;2022-07-05T04:42:13;78184.06;;;25.16;40.99
20955;BME280;10636;19.390;-99.256;2022-07-05T04:44:42;78185.38;;;25.15;41.04
20955;BME280;10636;19.390;-99.256;2022-07-05T04:47:14;78173.25;;;25.14;40.93
20955;BME280;10636;19.390;-99.256;2022-07-05T04:49:43;78180.59;;;25.14;41.27
20955;BME280;10636;19.390;-99.256;2022-07-05T04:52:11;78187.91;;;25.11;41.24
20955;BME280;10636;19.390;-99.256;2022-07-05T04:54:40;78187.28;;;25.13;41.21
20955;BME280;10636;19.390;-99.256;2022-07-05T04:57:08;78182.59;;;25.13;41.23
20955;BME280;10636;19.390;-99.256;2022-07-05T04:59:37;78187.97;;;25.13;41.19
20955;BME280;10636;19.390;-99.256;2022-07-05T05:02:05;78187.28;;;25.13;41.41
20955;BME280;10636;19.390;-99.256;2022-07-05T05:04:35;78201.38;;;25.13;41.08
20955;BME280;10636;19.390;-99.256;2022-07-05T05:07:04;78201.47;;;25.15;41.45
20955;BME280;10636;19.390;-99.256;2022-07-05T05:09:33;78193.44;;;25.15;41.28
20955;BME280;10636;19.390;-99.256;2022-07-05T05:12:01;78192.03;;;25.14;40.96
20955;BME280;10636;19.390;-99.256;2022-07-05T05:14:30;78203.44;;;25.15;41.08
20955;BME280;10636;19.390;-99.256;2022-07-05T05:16:58;78202.75;;;25.14;41.28
20955;BME280;10636;19.390;-99.256;2022-07-05T05:19:26;78206.06;;;25.13;40.90
20955;BME280;10636;19.390;-99.256;2022-07-05T05:21:56;78213.50;;;25.14;41.20
20955;BME280;10636;19.390;-99.256;2022-07-05T05:24:25;78216.78;;;25.13;41.34
20955;BME280;10636;19.390;-99.256;2022-07-05T05:26:53;78217.47;;;25.13;41.28
20955;BME280;10636;19.390;-99.256;2022-07-05T05:29:22;78218.88;;;25.14;40.97
20955;BME280;10636;19.390;-99.256;2022-07-05T05:31:50;78222.84;;;25.13;41.07
20955;BME280;10636;19.390;-99.256;2022-07-05T05:34:18;78218.88;;;25.14;41.14
20955;BME280;10636;19.390;-99.256;2022-07-05T05:36:47;78216.78;;;25.13;41.03
20955;BME280;10636;19.390;-99.256;2022-07-05T05:39:17;78222.16;;;25.13;40.97
20955;BME280;10636;19.390;-99.256;2022-07-05T05:41:45;78226.78;;;25.10;41.01
20955;BME280;10636;19.390;-99.256;2022-07-05T05:44:14;78226.66;;;25.08;41.12
20955;BME280;10636;19.390;-99.256;2022-07-05T05:46:42;78186.44;;;24.76;40.98
20955;BME280;10636;19.390;-99.256;2022-07-05T05:49:11;78228.66;;;25.08;41.05
20955;BME280;10636;19.390;-99.256;2022-07-05T05:51:39;78222.00;;;25.09;41.56
20955;BME280;10636;19.390;-99.256;2022-07-05T05:54:08;78225.28;;;25.07;41.10
20955;BME280;10636;19.390;-99.256;2022-07-05T05:56:38;78224.59;;;25.07;40.99
20955;BME280;10636;19.390;-99.256;2022-07-05T05:59:06;78225.97;;;25.08;41.42
20955;BME280;10636;19.390;-99.256;2022-07-05T06:01:35;78221.09;;;25.04;41.04
20955;BME280;10636;19.390;-99.256;2022-07-05T06:04:03;78215.88;;;25.06;41.25
20955;BME280;10636;19.390;-99.256;2022-07-05T06:06:31;78225.19;;;25.05;41.40
20955;BME280;10636;19.390;-99.256;2022-07-05T06:09:00;78234.66;;;25.06;41.49
20955;BME280;10636;19.390;-99.256;2022-07-05T06:11:28;78231.97;;;25.06;41.49
20955;BME280;10636;19.390;-99.256;2022-07-05T06:13:58;78231.84;;;25.04;41.51
20955;BME280;10636;19.390;-99.256;2022-07-05T06:16:27;78241.41;;;25.07;41.25
20955;BME280;10636;19.390;-99.256;2022-07-05T06:18:55;78235.13;;;25.02;40.99
20955;BME280;10636;19.390;-99.256;2022-07-05T06:21:24;78239.31;;;25.06;41.34
20955;BME280;10636;19.390;-99.256;2022-07-05T06:23:52;78237.91;;;25.04;41.47
20955;BME280;10636;19.390;-99.256;2022-07-05T06:26:21;78237.91;;;25.04;41.32
20955;BME280;10636;19.390;-99.256;2022-07-05T06:28:49;78233.06;;;25.01;41.49
20955;BME280;10636;19.390;-99.256;2022-07-05T06:31:19;78233.06;;;25.01;41.56
20955;BME280;10636;19.390;-99.256;2022-07-05T06:33:47;78225.72;;;25.01;41.35
20955;BME280;10636;19.390;-99.256;2022-07-05T06:36:16;78223.03;;;25.01;41.26
20955;BME280;10636;19.390;-99.256;2022-07-05T06:38:44;78227.69;;;25.01;41.47
20955;BME280;10636;19.390;-99.256;2022-07-05T06:41:13;78221.66;;;25.00;41.05
20955;BME280;10636;19.390;-99.256;2022-07-05T06:43:41;78222.22;;;24.99;41.20
20955;BME280;10636;19.390;-99.256;2022-07-05T06:46:09;78216.97;;;25.01;41.33
20955;BME280;10636;19.390;-99.256;2022-07-05T06:48:39;78216.97;;;25.01;41.59
20955;BME280;10636;19.390;-99.256;2022-07-05T06:51:08;78204.84;;;25.00;41.13
20955;BME280;10636;19.390;-99.256;2022-07-05T06:53:36;78212.28;;;25.01;41.21
20955;BME280;10636;19.390;-99.256;2022-07-05T06:56:05;78216.97;;;25.01;41.56
20955;BME280;10636;19.390;-99.256;2022-07-05T06:58:33;78216.97;;;25.01;41.69
20955;BME280;10636;19.390;-99.256;2022-07-05T07:01:02;78210.28;;;25.02;41.28
20955;BME280;10636;19.390;-99.256;2022-07-05T07:03:30;78211.59;;;25.01;41.36
20955;BME280;10636;19.390;-99.256;2022-07-05T07:06:00;78210.22;;;25.00;41.46
20955;BME280;10636;19.390;-99.256;2022-07-05T07:08:29;78204.84;;;25.00;41.24
20955;BME280;10636;19.390;-99.256;2022-07-05T07:11:14;78204.84;;;25.00;41.69
20955;BME280;10636;19.390;-99.256;2022-07-05T07:13:43;78196.81;;;25.00;41.56
20955;BME280;10636;19.390;-99.256;2022-07-05T07:16:11;78194.72;;;24.98;41.51
20955;BME280;10636;19.390;-99.256;2022-07-05T07:18:39;78196.72;;;24.98;41.74
20955;BME280;10636;19.390;-99.256;2022-07-05T07:21:09;78195.41;;;24.99;41.82
20955;BME280;10636;19.390;-99.256;2022-07-05T07:23:38;78198.09;;;24.99;41.68
20955;BME280;10636;19.390;-99.256;2022-07-05T07:26:06;78193.44;;;24.99;41.34
20955;BME280;10636;19.390;-99.256;2022-07-05T07:28:35;78188.66;;;24.98;41.94
20955;BME280;10636;19.390;-99.256;2022-07-05T07:31:03;78189.97;;;24.97;41.76
20955;BME280;10636;19.390;-99.256;2022-07-05T07:33:32;78185.97;;;24.98;41.84
20955;BME280;10636;19.390;-99.256;2022-07-05T07:36:00;78202.75;;;24.98;41.84
20955;BME280;10636;19.390;-99.256;2022-07-05T07:38:30;78199.31;;;24.96;41.45
20955;BME280;10636;19.390;-99.256;2022-07-05T07:40:59;78201.38;;;24.97;41.89
20955;BME280;10636;19.390;-99.256;2022-07-05T07:43:28;78204.69;;;24.96;41.81
20955;BME280;10636;19.390;-99.256;2022-07-05T07:45:56;78204.00;;;24.95;41.87
20955;BME280;10636;19.390;-99.256;2022-07-05T07:48:24;78197.94;;;24.95;41.68
20955;BME280;10636;19.390;-99.256;2022-07-05T07:50:55;78203.31;;;24.95;41.79
20955;BME280;10636;19.390;-99.256;2022-07-05T07:53:23;78199.66;;;24.88;41.67
20955;BME280;10636;19.390;-99.256;2022-07-05T07:55:53;78196.47;;;24.92;41.86
20955;BME280;10636;19.390;-99.256;2022-07-05T07:58:22;78199.16;;;24.92;41.48
20955;BME280;10636;19.390;-99.256;2022-07-05T08:00:50;78200.53;;;24.93;41.70
20955;BME280;10636;19.390;-99.256;2022-07-05T08:03:19;78198.44;;;24.91;41.59
20955;BME280;10636;19.390;-99.256;2022-07-05T08:05:47;78195.16;;;24.93;41.64
20955;BME280;10636;19.390;-99.256;2022-07-05T08:08:15;78193.78;;;24.92;41.65
20955;BME280;10636;19.390;-99.256;2022-07-05T08:10:44;78201.81;;;24.92;41.85
20955;BME280;10636;19.390;-99.256;2022-07-05T08:13:14;78195.09;;;24.91;42.27
20955;BME280;10636;19.390;-99.256;2022-07-05T08:15:42;78201.06;;;24.89;42.12
20955;BME280;10636;19.390;-99.256;2022-07-05T08:18:10;78202.44;;;24.90;42.38
20955;BME280;10636;19.390;-99.256;2022-07-05T08:21:04;78205.72;;;24.89;42.55
20955;BME280;10636;19.390;-99.256;2022-07-05T08:23:49;78201.06;;;24.89;42.52
20955;BME280;10636;19.390;-99.256;2022-07-05T08:26:18;78191.53;;;24.86;42.55
20955;BME280;10636;19.390;-99.256;2022-07-05T08:28:48;78197.59;;;24.87;42.69
20955;BME280;10636;19.390;-99.256;2022-07-05T08:31:16;78190.06;;;24.83;43.43
20955;BME280;10636;19.390;-99.256;2022-07-05T08:33:45;78193.34;;;24.82;43.40
20955;BME280;10636;19.390;-99.256;2022-07-05T08:36:13;78196.72;;;24.82;43.91
20955;BME280;10636;19.390;-99.256;2022-07-05T08:38:42;78197.34;;;24.81;43.56
20955;BME280;10636;19.390;-99.256;2022-07-05T08:41:13;78192.59;;;24.79;43.97
20955;BME280;10636;19.390;-99.256;2022-07-05T08:43:47;78191.91;;;24.78;43.59
20955;BME280;10636;19.390;-99.256;2022-07-05T08:46:16;78185.13;;;24.77;44.20
20955;BME280;10636;19.390;-99.256;2022-07-05T08:48:48;78184.44;;;24.77;43.69
20955;BME280;10636;19.390;-99.256;2022-07-05T08:51:19;78188.50;;;24.78;43.64
20955;BME280;10636;19.390;-99.256;2022-07-05T08:53:50;78177.69;;;24.76;44.11
20955;BME280;10636;19.390;-99.256;2022-07-05T08:56:22;78174.31;;;24.75;44.14
20955;BME280;10636;19.390;-99.256;2022-07-05T08:58:52;78170.28;;;24.74;44.34
20955;BME280;10636;19.390;-99.256;2022-07-05T09:01:20;78168.91;;;24.73;44.44
20955;BME280;10636;19.390;-99.256;2022-07-05T09:03:50;78176.22;;;24.73;43.92
20955;BME280;10636;19.390;-99.256;2022-07-05T09:06:20;78180.13;;;24.70;44.58
20955;BME280;10636;19.390;-99.256;2022-07-05T09:08:51;78178.06;;;24.68;44.39
20955;BME280;10636;19.390;-99.256;2022-07-05T09:11:24;78178.06;;;24.68;44.69
20955;BME280;10636;19.390;-99.256;2022-07-05T09:13:54;78172.69;;;24.68;44.24
20955;BME280;10636;19.390;-99.256;2022-07-05T09:16:23;78168.72;;;24.69;44.77
20955;BME280;10636;19.390;-99.256;2022-07-05T09:18:53;78170.03;;;24.68;44.35
20955;BME280;10636;19.390;-99.256;2022-07-05T09:21:24;78172.69;;;24.68;44.25
20955;BME280;10636;19.390;-99.256;2022-07-05T09:23:57;78171.41;;;24.69;44.70
20955;BME280;10636;19.390;-99.256;2022-07-05T09:26:32;78160.56;;;24.67;44.36
20955;BME280;10636;19.390;-99.256;2022-07-05T09:29:04;78171.31;;;24.67;44.31
20955;BME280;10636;19.390;-99.256;2022-07-05T09:31:33;78173.91;;;24.65;44.71
20955;BME280;10636;19.390;-99.256;2022-07-05T09:34:06;78167.25;;;24.66;44.34
20955;BME280;10636;19.390;-99.256;2022-07-05T09:36:51;78173.91;;;24.65;44.81
20955;BME280;10636;19.390;-99.256;2022-07-05T09:39:36;78171.91;;;24.66;44.84
20955;BME280;10636;19.390;-99.256;2022-07-05T09:42:12;78172.53;;;24.64;44.61
20955;BME280;10636;19.390;-99.256;2022-07-05T09:44:44;78177.88;;;24.64;44.86
20955;BME280;10636;19.390;-99.256;2022-07-05T09:47:13;78183.25;;;24.64;44.69
20955;BME280;10636;19.390;-99.256;2022-07-05T09:49:43;78181.88;;;24.63;44.59
20955;BME280;10636;19.390;-99.256;2022-07-05T09:52:12;78181.88;;;24.63;44.68
20955;BME280;10636;19.390;-99.256;2022-07-05T09:55:07;78176.50;;;24.63;45.08
20955;BME280;10636;19.390;-99.256;2022-07-05T09:57:37;78180.56;;;24.64;44.98
20955;BME280;10636;19.390;-99.256;2022-07-05T10:00:10;78177.88;;;24.64;44.85
20955;BME280;10636;19.390;-99.256;2022-07-05T10:02:41;78168.47;;;24.63;45.08
20955;BME280;10636;19.390;-99.256;2022-07-05T10:05:11;78164.47;;;24.64;45.22
20955;BME280;10636;19.390;-99.256;2022-07-05T10:07:41;78162.50;;;24.65;45.03
20955;BME280;10636;19.390;-99.256;2022-07-05T10:10:12;78175.28;;;24.66;44.89
20955;BME280;10636;19.390;-99.256;2022-07-05T10:12:42;78168.53;;;24.65;44.70
20955;BME280;10636;19.390;-99.256;2022-07-05T10:15:13;78165.16;;;24.65;45.30
20955;BME280;10636;19.390;-99.256;2022-07-05T10:17:43;78165.16;;;24.65;45.37
20955;BME280;10636;19.390;-99.256;2022-07-05T10:20:17;78165.78;;;24.63;44.93
20955;BME280;10636;19.390;-99.256;2022-07-05T10:22:47;78165.78;;;24.63;45.19
20955;BME280;10636;19.390;-99.256;2022-07-05T10:25:16;78163.69;;;24.62;45.36
20955;BME280;10636;19.390;-99.256;2022-07-05T10:27:44;78160.41;;;24.63;45.23
20955;BME280;10636;19.390;-99.256;2022-07-05T10:30:15;78168.47;;;24.63;44.99
20955;BME280;10636;19.390;-99.256;2022-07-05T10:32:44;78161.09;;;24.64;45.08
20955;BME280;10636;19.390;-99.256;2022-07-05T10:35:13;78164.38;;;24.62;44.96
20955;BME280;10636;19.390;-99.256;2022-07-05T10:37:42;78168.47;;;24.63;45.29
20955;BME280;10636;19.390;-99.256;2022-07-05T10:40:11;78163.00;;;24.61;45.03
20955;BME280;10636;19.390;-99.256;2022-07-05T10:42:42;78167.00;;;24.60;45.05
20955;BME280;10636;19.390;-99.256;2022-07-05T10:45:29;78176.34;;;24.59;45.49
20955;BME280;10636;19.390;-99.256;2022-07-05T10:48:18;78168.19;;;24.57;44.98
20955;BME280;10636;19.390;-99.256;2022-07-05T10:50:49;78174.16;;;24.56;45.21
20955;BME280;10636;19.390;-99.256;2022-07-05T10:53:18;78170.03;;;24.52;45.22
20955;BME280;10636;19.390;-99.256;2022-07-05T10:55:49;78174.16;;;24.56;45.31
20955;BME280;10636;19.390;-99.256;2022-07-05T10:58:24;78173.47;;;24.55;45.21
20955;BME280;10636;19.390;-99.256;2022-07-05T11:04:17;78170.78;;;24.55;45.41
20955;BME280;10636;19.390;-99.256;2022-07-05T11:06:47;78174.78;;;24.54;44.66
20955;BME280;10636;19.390;-99.256;2022-07-05T11:09:19;78180.16;;;24.54;44.89
20955;BME280;10636;19.390;-99.256;2022-07-05T11:12:03;78184.13;;;24.53;45.19
20955;BME280;10636;19.390;-99.256;2022-07-05T11:14:37;78176.66;;;24.51;44.78
20955;BME280;10636;19.390;-99.256;2022-07-05T11:17:22;78182.75;;;24.52;44.92
20955;BME280;10636;19.390;-99.256;2022-07-05T11:20:08;78180.75;;;24.52;45.14
20955;BME280;10636;19.390;-99.256;2022-07-05T11:22:38;78170.47;;;24.47;45.25
20955;BME280;10636;19.390;-99.256;2022-07-05T11:25:09;78177.38;;;24.52;45.33
20955;BME280;10636;19.390;-99.256;2022-07-05T11:27:59;78184.72;;;24.51;44.84
20955;BME280;10636;19.390;-99.256;2022-07-05T11:30:28;78184.81;;;24.54;45.41
20955;BME280;10636;19.390;-99.256;2022-07-05T11:32:59;78181.44;;;24.53;44.94
20955;BME280;10636;19.390;-99.256;2022-07-05T11:35:32;78182.75;;;24.52;45.34
20955;BME280;10636;19.390;-99.256;2022-07-05T11:38:06;78175.84;;;24.47;45.00
20955;BME280;10636;19.390;-99.256;2022-07-05T11:40:35;78187.41;;;24.51;44.58
20955;BME280;10636;19.390;-99.256;2022-07-05T11:43:04;78184.72;;;24.51;45.43
20955;BME280;10636;19.390;-99.256;2022-07-05T11:45:34;78179.97;;;24.50;44.99
20955;BME280;10636;19.390;-99.256;2022-07-05T11:48:05;78189.38;;;24.51;45.16
20955;BME280;10636;19.390;-99.256;2022-07-05T11:50:35;78175.97;;;24.51;45.37
20955;BME280;10636;19.390;-99.256;2022-07-05T11:53:05;78175.97;;;24.51;45.52
20955;BME280;10636;19.390;-99.256;2022-07-05T11:55:38;78186.72;;;24.51;44.93
20955;BME280;10636;19.390;-99.256;2022-07-05T11:58:09;78188.09;;;24.52;44.81
20955;BME280;10636;19.390;-99.256;2022-07-05T12:00:38;78186.72;;;24.51;45.16
20955;BME280;10636;19.390;-99.256;2022-07-05T12:03:12;78186.72;;;24.51;44.97
20955;BME280;10636;19.390;-99.256;2022-07-05T12:05:42;78190.78;;;24.52;45.23
20955;BME280;10636;19.390;-99.256;2022-07-05T12:08:10;78191.38;;;24.50;45.31
20955;BME280;10636;19.390;-99.256;2022-07-05T12:10:45;78193.38;;;24.50;44.60
20955;BME280;10636;19.390;-99.256;2022-07-05T12:13:31;78193.47;;;24.52;45.17
20955;BME280;10636;19.390;-99.256;2022-07-05T12:16:00;78202.91;;;24.53;44.83
20955;BME280;10636;19.390;-99.256;2022-07-05T12:18:28;78200.22;;;24.53;45.50
20955;BME280;10636;19.390;-99.256;2022-07-05T12:20:58;78200.28;;;24.55;45.04
20955;BME280;10636;19.390;-99.256;2022-07-05T12:23:27;78204.34;;;24.56;45.14
20955;BME280;10636;19.390;-99.256;2022-07-05T12:25:58;78201.66;;;24.56;45.21
20955;BME280;10636;19.390;-99.256;2022-07-05T12:28:27;78202.97;;;24.55;45.28
20955;BME280;10636;19.390;-99.256;2022-07-05T12:30:55;78211.81;;;24.58;45.07
20955;BME280;10636;19.390;-99.256;2022-07-05T12:33:24;78215.06;;;24.56;45.75
20955;BME280;10636;19.390;-99.256;2022-07-05T12:35:54;78216.31;;;24.53;45.64
20955;BME280;10636;19.390;-99.256;2022-07-05T12:38:29;78218.88;;;24.51;45.90
20955;BME280;10636;19.390;-99.256;2022-07-05T12:40:58;78214.81;;;24.50;45.72
20955;BME280;10636;19.390;-99.256;2022-07-05T12:43:27;78211.44;;;24.49;45.76
20955;BME280;10636;19.390;-99.256;2022-07-05T12:46:02;78211.44;;;24.49;45.77
20955;BME280;10636;19.390;-99.256;2022-07-05T12:48:32;78208.06;;;24.49;45.76
20955;BME280;10636;19.390;-99.256;2022-07-05T12:51:01;78216.13;;;24.49;45.99
20955;BME280;10636;19.390;-99.256;2022-07-05T12:53:31;78213.44;;;24.49;46.17
20955;BME280;10636;19.390;-99.256;2022-07-05T12:56:21;78222.19;;;24.49;46.23
20955;BME280;10636;19.390;-99.256;2022-07-05T12:59:09;78224.09;;;24.47;46.19